• Join FlightAware (Why Join?)
  • Login
  • US Flag 
04:38AM EDT


 

Airport Tracker/Info


-or-


 

Live Flight TrackerFlight Track Log ✈ GLA154 ✈ 21-Apr-2013 ✈ KIGM - KLAX

Flight Track Log - Related Links

Times and Time Zones

All times are in EDT time to prevent confusion due to time zone crossing. See the GLA154 flight status page for this flight to view local times or setup timezone preferences in your user account.

Time Position Orientation Groundspeed Altitude Reporting Facility
EDT Latitude Longitude Course Direction KTS MPH feet Rate Location/Type
12:48PM 35.2086 -113.9922 223° Southwest 202 232 6,200  Level Los Angeles Center
12:49PM 35.1711 -114.0325 221° Southwest 178 205 8,200 1,860 Climbing Los Angeles Center
12:50PM 35.1325 -114.0744 222° Southwest 184 212 10,100 1,800 Climbing Los Angeles Center
12:51PM 35.0981 -114.1175 226° Southwest 180 207 12,000 1,860 Climbing Los Angeles Center
12:52PM 35.0478 -114.1664 219° Southwest 190 219 14,000 1,740 Climbing Los Angeles Center
12:53PM 35.0033 -114.2089 218° Southwest 200 230 15,600 1,440 Climbing Los Angeles Center
12:54PM 34.9542 -114.2524 223° Southwest  Level FlightAware Approximate
12:55PM 34.9631 -114.2547 223° Southwest 199 229 17,100  Level Los Angeles Center
12:56PM 34.9242 -114.3033 226° Southwest 200 230 18,300 1,140 Climbing Los Angeles Center
12:57PM 34.8853 -114.3553 228° Southwest 207 238 19,500 900 Climbing Los Angeles Center
12:58PM 34.8442 -114.4097 227° Southwest 218 251 20,200 240 Climbing Los Angeles Center
12:59PM 34.7717 -114.4656 212° Southwest 260 299 20,000 -60 Descending Los Angeles Center
01:00PM 34.7119 -114.5206 217° Southwest 266 306 20,100  Climbing Los Angeles Center
01:01PM 34.6678 -114.5919 233° Southwest 264 304 20,100  Level Los Angeles Center
01:02PM 34.6172 -114.6558 226° Southwest 263 303 20,100 -60 Level Los Angeles Center
01:03PM 34.5697 -114.7250 230° Southwest 264 304 20,000  Descending Los Angeles Center
01:04PM 34.5289 -114.7986 236° Southwest 263 303 20,100  Climbing Los Angeles Center
01:05PM 34.4836 -114.8883 239° Southwest 261 300 20,000  Descending Los Angeles Center
01:06PM 34.4514 -114.9678 244° Southwest 261 300 20,100  Climbing Los Angeles Center
01:07PM 34.4236 -115.0478 247° West 259 298 20,100  Level Los Angeles Center
01:08PM 34.3939 -115.1269 246° West 259 298 20,100  Level Los Angeles Center
01:09PM 34.3608 -115.2089 244° Southwest 257 296 20,100  Level Los Angeles Center
01:10PM 34.3264 -115.2842 241° Southwest 256 295 20,100 -60 Level Los Angeles Center
01:11PM 34.2914 -115.3606 241° Southwest 261 300 20,000 -60 Descending Los Angeles Center
01:12PM 34.2550 -115.4350 239° Southwest 259 298 20,000  Level Los Angeles Center
01:13PM 34.2139 -115.5267 242° Southwest 259 298 20,000  Level Los Angeles Center
01:14PM 34.1794 -115.6031 241° Southwest 259 298 20,000  Level Los Angeles Center
01:15PM 34.1486 -115.6811 245° Southwest 258 297 20,000  Level Los Angeles Center
01:16PM 34.1175 -115.7600 245° Southwest 260 299 20,100  Climbing Los Angeles Center
01:17PM 34.0875 -115.8383 245° Southwest 261 300 20,100  Level Los Angeles Center
01:18PM 34.0542 -115.9336 247° West 258 297 20,100  Level Los Angeles Center
01:19PM 34.0239 -116.0122 245° Southwest 260 299 20,100 -60 Level Los Angeles Center
01:20PM 33.9936 -116.0903 245° Southwest 259 298 20,000 -600 Descending Los Angeles Center
01:21PM 33.9675 -116.1725 249° West 263 303 18,900 -1,200 Descending Los Angeles Center
01:23PM 33.9332 -116.2518 242° Southwest  Level FlightAware Approximate
01:23PM 33.9150 -116.3419 242° Southwest 272 313 16,300  Level Los Angeles Center
01:25PM 33.8783 -116.4394 246° West 268 308 16,000 -540 Descending Los Angeles Center
01:26PM 33.8753 -116.5233 268° West 255 293 15,300 -780 Descending Los Angeles Center
01:27PM 33.8822 -116.6142 275° West 271 312 14,500 -540 Descending Los Angeles Center
01:28PM 33.8842 -116.7022 272° West 267 307 14,200 -300 Descending Los Angeles Center
01:29PM 33.8911 -116.7886 276° West 262 302 14,000 -120 Descending Los Angeles Center
01:30PM 33.8958 -116.8900 273° West 256 295 14,000  Level Los Angeles Center
01:30PM 33.9000 -116.9500 275° West 252 290 14,100 -360 Climbing Southern California TRACON
01:31PM 33.9000 -117.0333 270° West 263 303 13,500 -960 Descending Southern California TRACON
01:32PM 33.9000 -117.1333 270° West 284 327 12,100 -1,500 Descending Southern California TRACON
01:33PM 33.9000 -117.2333 270° West 281 323 10,400 -1,860 Descending Southern California TRACON
01:34PM 33.9000 -117.3167 270° West 279 321 8,400 -1,200 Descending Southern California TRACON
01:35PM 33.9167 -117.4167 281° West 270 311 8,000 -240 Descending Southern California TRACON
01:36PM 33.9167 -117.5000 270° West 265 305 8,000  Level Southern California TRACON
01:37PM 33.9167 -117.5833 270° West 267 307 8,100  Climbing Southern California TRACON
01:38PM 33.9167 -117.6667 270° West 268 308 8,100  Level Southern California TRACON
01:39PM 33.9167 -117.7667 270° West 267 307 8,100 -300 Level Southern California TRACON
01:40PM 33.9167 -117.8500 270° West 268 308 7,500 -840 Descending Southern California TRACON
01:41PM 33.9333 -117.9333 284° West 270 311 6,500 -1,020 Descending Southern California TRACON
01:42PM 33.9667 -118.0000 301° West 261 300 5,600 -780 Descending Southern California TRACON
01:43PM 33.9667 -118.1000 270° West 240 276 5,000 -660 Descending Southern California TRACON
01:44PM 33.9628 -118.1375 263° West 225 259 4,500 -960 Descending Los Angeles Center
01:45PM 33.9564 -118.2017 263° West 201 231 3,400 -1,200 Descending Los Angeles Center
01:46PM 33.9486 -118.2775 263° West 195 224 2,000 -1,200 Descending Los Angeles Center
01:47PM 33.9439 -118.3322 264° West 175 201 1,000 -840 Descending Los Angeles Center
01:48PM 33.9394 -118.3742 263° West 144 166 300 -420 Descending Los Angeles Center
01:49PM 33.9353 -118.4139 263° West 140 161 200 -120 Descending Los Angeles Center
01:51PM 33.9425 -118.4081 100° East  Level Estimated